Island of Crete, Greece
Current Conditions -  °F | °C
As of 9:50 PM on Sunday 23 Nov 2014 (Local Time) from LGIR Reporting Station
Broken Clouds Broken Clouds  
Wind Chill: 59°   Ceiling: 2500
Heat Index: 59°   Visibility: 6mi
Dew Point: 45°   Wind: 22mph
Humidity: 59%   Direction: 360°N
Pressure: 30.15"   Gusts: NA
Location:  35.33°N, 25.18°E
Report Text: LGIR 231850Z 36019KT 9999 BKN025 15/07 Q1021 NOSIG
Loading
Personal Weather Stations






























Interactive Weather Map New forecast layout! Learn more

10-Day Weather Forecast

Advertisements
Track Severe Weather on mobile